Time;durP1;ratioP1;P1;durP2;ratioP2;P2;SDS_P1;SDS_P2;PMS_P1;PMS_P2;Temp;Humidity;BMP_temperature;BMP_pressure;BME280_temperature;BME280_humidity;BME280_pressure;Samples;Min_cycle;Max_cycle;Signal;HPM_P1;HPM_P2
2023/02/09 00:01:50;;;;;;;1.77;1.67;;;;;;;-4.87;74.30;102131.38;5095483;28;20048;-68
2023/02/09 00:04:18;;;;;;;2.65;2.47;;;;;;;-4.94;74.33;102133.09;5095263;28;20056;-68
2023/02/09 00:06:47;;;;;;;5.20;4.23;;;;;;;-5.00;74.29;102135.00;5095367;28;20131;-68
2023/02/09 00:09:19;;;;;;;4.05;2.78;;;;;;;-5.06;74.31;102126.94;5095420;28;20044;-68
2023/02/09 00:14:26;;;;;;;0.63;0.63;;;;;;;-5.11;73.92;102123.97;5095453;28;20421;-68
2023/02/09 00:16:55;;;;;;;2.22;1.92;;;;;;;-5.19;73.79;102124.81;5095173;28;20051;-68
2023/02/09 00:19:24;;;;;;;3.90;3.60;;;;;;;-5.24;73.87;102125.06;5095106;28;20127;-68
2023/02/09 00:21:53;;;;;;;2.10;1.92;;;;;;;-5.25;73.97;102108.38;5095573;28;20194;-68
2023/02/09 00:24:23;;;;;;;1.97;1.87;;;;;;;-5.26;74.17;102116.56;5095044;28;20493;-68
2023/02/09 00:26:52;;;;;;;4.75;4.32;;;;;;;-5.34;74.57;102103.38;5094913;28;20443;-68
2023/02/09 00:29:22;;;;;;;1.35;1.27;;;;;;;-5.24;74.14;102105.16;5094975;28;20127;-67
2023/02/09 00:31:51;;;;;;;1.35;1.25;;;;;;;-5.27;74.65;102095.78;5093621;28;20036;-67
2023/02/09 00:34:20;;;;;;;2.85;2.65;;;;;;;-5.18;74.40;102096.69;5095150;28;20051;-68
2023/02/09 00:36:49;;;;;;;2.33;1.02;;;;;;;-5.22;74.31;102084.69;5110551;28;20036;-68
2023/02/09 00:39:18;;;;;;;1.60;1.50;;;;;;;-5.31;74.35;102078.81;5094753;28;20560;-68
2023/02/09 00:44:28;;;;;;;2.15;2.05;;;;;;;-5.49;74.07;102082.81;5094715;28;20127;-68
2023/02/09 00:46:57;;;;;;;2.95;2.75;;;;;;;-5.53;74.52;102080.75;5094586;28;20051;-68
2023/02/09 00:49:26;;;;;;;0.50;0.50;;;;;;;-5.48;74.57;102074.63;5094564;28;20063;-67
2023/02/09 00:51:55;;;;;;;2.90;1.10;;;;;;;-5.58;74.55;102066.97;5094779;28;20501;-67
2023/02/09 00:54:24;;;;;;;4.40;4.03;;;;;;;-5.57;74.27;102078.69;5094042;28;20044;-68
2023/02/09 00:56:54;;;;;;;1.10;1.08;;;;;;;-5.63;74.25;102073.06;5094950;28;20540;-68
2023/02/09 00:59:22;;;;;;;1.80;1.70;;;;;;;-5.67;74.25;102071.00;5094389;28;20154;-68
2023/02/09 01:01:51;;;;;;;6.05;1.75;;;;;;;-5.63;74.11;102068.09;5094352;28;20123;-67
2023/02/09 01:04:20;;;;;;;1.50;1.40;;;;;;;-5.63;74.27;102058.16;5094167;28;20048;-67
2023/02/09 01:06:49;;;;;;;6.20;2.72;;;;;;;-5.61;74.13;102066.63;5109907;28;20105;-67
2023/02/09 01:09:18;;;;;;;1.67;1.57;;;;;;;-5.60;74.62;102073.38;5094229;28;20058;-67
2023/02/09 01:11:47;;;;;;;1.13;1.10;;;;;;;-5.59;74.42;102075.13;5093158;28;20784;-68
2023/02/09 01:14:18;;;;;;;;;;;;;;;-5.55;74.69;102076.34;5094494;28;20040;-68
2023/02/09 01:16:46;;;;;;;0.88;0.88;;;;;;;-5.57;74.64;102068.72;5094069;28;19920;-68
2023/02/09 01:19:15;;;;;;;4.20;3.35;;;;;;;-5.50;74.63;102071.09;5094450;28;20052;-68
2023/02/09 01:21:47;;;;;;;3.93;3.70;;;;;;;-5.45;74.45;102064.97;5094329;28;20135;-67
2023/02/09 01:24:16;;;;;;;1.23;1.15;;;;;;;-5.52;74.52;102067.56;5093952;28;20364;-67
2023/02/09 01:26:45;;;;;;;7.15;2.38;;;;;;;-5.56;74.30;102063.00;5094539;28;20127;-67
2023/02/09 01:29:18;;;;;;;2.10;1.30;;;;;;;-5.58;74.48;102066.06;5092957;28;20457;-67
2023/02/09 01:31:49;;;;;;;0.95;0.95;;;;;;;-5.53;74.59;102065.81;5094156;28;20036;-67
2023/02/09 01:34:19;;;;;;;1.17;1.17;;;;;;;-5.54;74.79;102056.56;5094233;28;20051;-68
2023/02/09 01:36:49;;;;;;;1.67;1.58;;;;;;;-5.46;74.55;102062.31;5093860;28;20048;-68
2023/02/09 01:39:18;;;;;;;1.40;1.30;;;;;;;-5.49;74.40;102062.00;5094073;28;20044;-67
2023/02/09 01:41:47;;;;;;;0.67;0.67;;;;;;;-5.54;74.40;102059.06;5092932;28;20131;-67
2023/02/09 01:44:37;;;;;;;1.70;1.60;;;;;;;-5.59;74.40;102054.38;5093707;28;20494;-67
2023/02/09 01:47:13;;;;;;;1.23;1.15;;;;;;;-5.53;74.67;102060.84;5093993;28;20048;-67
2023/02/09 01:49:45;;;;;;;0.95;0.95;;;;;;;-5.48;74.22;102052.25;5093851;28;20047;-67
2023/02/09 01:52:19;;;;;;;3.22;2.75;;;;;;;-5.53;74.21;102050.00;5092739;28;20044;-67
2023/02/09 01:54:51;;;;;;;1.70;1.60;;;;;;;-5.64;74.40;102055.53;5093968;28;20048;-67
2023/02/09 01:57:25;;;;;;;3.38;1.92;;;;;;;-5.61;74.21;102051.72;5093591;28;20048;-67
2023/02/09 02:00:00;;;;;;;1.05;1.05;;;;;;;-5.53;74.02;102055.88;5094017;28;20512;-67
2023/02/09 02:02:33;;;;;;;1.77;1.67;;;;;;;-5.54;74.46;102059.06;5093658;28;20048;-67
2023/02/09 02:05:02;;;;;;;0.47;0.47;;;;;;;-5.54;73.76;102051.59;5093195;28;20056;-67
2023/02/09 02:07:40;;;;;;;0.32;0.32;;;;;;;-5.60;73.90;102058.47;5096250;28;20457;-67
2023/02/09 02:10:09;;;;;;;0.60;0.60;;;;;;;-5.68;74.02;102058.41;5096930;28;20055;-67
2023/02/09 02:12:38;;;;;;;;;;;;;;;-5.58;74.06;102059.50;5097044;28;20047;-67
2023/02/09 02:15:12;;;;;;;0.50;0.50;;;;;;;-5.64;74.12;102058.84;5097657;28;19951;-67
2023/02/09 02:18:10;;;;;;;0.82;0.82;;;;;;;-5.58;74.43;102057.00;5097781;28;20504;-67
2023/02/09 02:21:06;;;;;;;3.15;2.95;;;;;;;-5.54;74.04;102056.56;5096449;28;20048;-67
2023/02/09 02:23:47;;;;;;;2.75;2.55;;;;;;;-5.56;74.17;102060.53;5090766;28;20040;-67
2023/02/09 02:26:44;;;;;;;8.93;3.92;;;;;;;-5.56;74.06;102062.13;5096437;28;20078;-67
2023/02/09 02:29:30;;;;;;;0.55;0.55;;;;;;;-5.66;73.71;102062.81;5096444;28;20093;-67
2023/02/09 02:32:13;;;;;;;1.58;1.48;;;;;;;-5.72;73.80;102074.63;5097220;28;20047;-67
2023/02/09 02:34:48;;;;;;;3.13;2.88;;;;;;;-5.81;73.88;102061.28;5097144;28;20040;-67
2023/02/09 02:37:36;;;;;;;1.65;1.55;;;;;;;-5.95;74.04;102063.97;5097134;28;20048;-66
2023/02/09 02:40:16;;;;;;;0.70;0.70;;;;;;;-5.92;73.90;102061.81;5095858;28;20097;-66
2023/02/09 02:42:55;;;;;;;4.30;1.52;;;;;;;-6.06;73.80;102059.50;5097067;28;20044;-67
2023/02/09 02:45:36;;;;;;;1.98;1.88;;;;;;;-6.04;74.21;102064.63;5097337;28;20108;-67
2023/02/09 02:48:16;;;;;;;1.00;1.00;;;;;;;-6.10;73.67;102062.41;5096993;28;20055;-67
2023/02/09 02:50:51;;;;;;;0.43;0.43;;;;;;;-6.15;74.23;102058.56;5096798;28;20052;-66
2023/02/09 02:53:24;;;;;;;1.58;1.48;;;;;;;-6.20;73.88;102057.22;5096855;28;20124;-66
2023/02/09 02:55:56;;;;;;;0.40;0.40;;;;;;;-6.31;73.90;102062.69;5096822;28;20066;-66
2023/02/09 02:58:26;;;;;;;0.68;0.68;;;;;;;-6.27;74.20;102049.84;5096732;28;20048;-66
2023/02/09 03:01:02;;;;;;;0.80;0.80;;;;;;;-6.37;74.01;102053.00;5096907;28;20059;-66
2023/02/09 03:03:36;;;;;;;3.28;3.00;;;;;;;-6.27;73.99;102047.38;5096933;28;20040;-66
2023/02/09 03:06:07;;;;;;;5.00;2.30;;;;;;;-6.32;73.92;102046.00;5095378;28;20104;-66
2023/02/09 03:08:51;;;;;;;1.02;0.98;;;;;;;-6.42;74.21;102055.72;5095647;28;20432;-66
2023/02/09 03:11:22;;;;;;;0.70;0.70;;;;;;;-6.39;74.06;102048.59;5095239;28;20067;-66
2023/02/09 03:14:13;;;;;;;0.75;0.75;;;;;;;-6.50;74.08;102044.13;5095245;28;20040;-66
2023/02/09 03:16:46;;;;;;;0.85;0.85;;;;;;;-6.52;74.29;102045.53;5095260;28;20047;-66
2023/02/09 03:19:29;;;;;;;0.45;0.45;;;;;;;-6.39;74.41;102048.59;5095149;28;20044;-66
2023/02/09 03:22:05;;;;;;;0.73;0.73;;;;;;;-6.40;74.02;102042.72;5095386;28;20101;-66
2023/02/09 03:24:44;;;;;;;0.40;0.40;;;;;;;-6.38;74.48;102050.38;5095060;28;20043;-66
2023/02/09 03:27:18;;;;;;;0.40;0.40;;;;;;;-6.39;74.43;102048.59;5095079;28;20058;-66
2023/02/09 03:29:50;;;;;;;0.35;0.35;;;;;;;-6.43;74.39;102039.06;5095012;28;20040;-66
2023/02/09 03:32:20;;;;;;;1.80;1.70;;;;;;;-6.36;74.25;102043.94;5095231;28;20169;-66
2023/02/09 03:34:52;;;;;;;0.98;0.98;;;;;;;-6.36;74.32;102047.28;5094927;28;20086;-66
2023/02/09 03:37:22;;;;;;;5.88;2.72;;;;;;;-6.26;74.50;102046.63;5094896;28;20075;-66
2023/02/09 03:39:51;;;;;;;5.57;2.95;;;;;;;-6.18;74.29;102040.84;5095127;28;20070;-66
2023/02/09 03:42:20;;;;;;;7.53;3.47;;;;;;;-6.15;74.25;102036.22;5095023;28;20124;-66
2023/02/09 03:44:49;;;;;;;0.50;0.50;;;;;;;-6.16;73.87;102041.91;5094726;28;20044;-66
2023/02/09 03:47:17;;;;;;;6.20;1.33;;;;;;;-6.19;74.19;102044.94;5094939;28;20075;-66
2023/02/09 03:49:46;;;;;;;0.50;0.50;;;;;;;-6.09;74.27;102040.94;5094968;28;20555;-66
2023/02/09 03:52:17;;;;;;;0.98;0.88;;;;;;;-6.09;73.86;102039.31;5094809;28;20101;-66
2023/02/09 03:54:46;;;;;;;1.13;1.08;;;;;;;-6.12;73.93;102041.50;5094541;28;20098;-66
2023/02/09 03:57:15;;;;;;;1.98;1.83;;;;;;;-6.10;73.84;102039.16;5094550;28;20044;-66
2023/02/09 03:59:44;;;;;;;4.22;3.80;;;;;;;-6.10;73.81;102035.09;5093830;28;20052;-66
2023/02/09 04:02:13;;;;;;;1.80;1.73;;;;;;;-6.09;73.68;102034.34;5094441;28;20075;-66
2023/02/09 04:04:42;;;;;;;3.05;2.85;;;;;;;-6.08;73.65;102038.59;5045439;28;1403958;-66
2023/02/09 04:07:12;;;;;;;1.52;1.42;;;;;;;-6.09;73.82;102029.38;5095419;28;20051;-66
2023/02/09 04:09:43;;;;;;;1.42;1.35;;;;;;;-6.17;73.55;102025.25;5095591;28;20044;-66
2023/02/09 04:12:12;;;;;;;1.27;1.20;;;;;;;-6.18;73.71;102025.94;5094280;28;20062;-66
2023/02/09 04:14:40;;;;;;;0.80;0.80;;;;;;;-6.28;73.54;102034.06;5094071;28;20089;-66
2023/02/09 04:17:09;;;;;;;5.85;2.63;;;;;;;-6.34;73.64;102038.41;5095179;28;20291;-66
2023/02/09 04:19:38;;;;;;;3.50;2.53;;;;;;;-6.43;73.65;102029.13;5095163;28;20485;-65
2023/02/09 04:22:08;;;;;;;3.17;2.95;;;;;;;-6.45;73.77;102038.88;5095426;28;20113;-66
2023/02/09 04:24:36;;;;;;;;;;;;;;;-6.42;73.87;102033.38;5095415;28;20075;-66
2023/02/09 04:27:06;;;;;;;0.67;0.67;;;;;;;-6.39;73.72;102044.50;5095386;28;19942;-65
2023/02/09 04:29:35;;;;;;;3.83;3.40;;;;;;;-6.43;73.86;102032.47;5094190;28;20048;-65
2023/02/09 04:32:04;;;;;;;3.47;3.28;;;;;;;-6.39;73.93;102026.22;5095181;28;20075;-65
2023/02/09 04:34:33;;;;;;;0.40;0.40;;;;;;;-6.35;73.81;102026.72;5094942;28;20126;-65
2023/02/09 04:37:01;;;;;;;2.00;1.90;;;;;;;-6.45;73.77;102023.09;5095112;28;20117;-65
2023/02/09 04:39:30;;;;;;;1.33;1.27;;;;;;;-6.57;73.67;102017.75;5095032;28;20494;-65
2023/02/09 04:41:59;;;;;;;2.80;2.63;;;;;;;-6.58;73.88;102025.06;5094727;28;20131;-65
2023/02/09 04:44:29;;;;;;;2.90;2.70;;;;;;;-6.62;73.79;102022.97;5094827;28;20051;-65
2023/02/09 04:46:59;;;;;;;0.85;0.85;;;;;;;-6.65;73.76;102005.28;5094614;28;20051;-65
2023/02/09 04:49:27;;;;;;;3.25;2.65;;;;;;;-6.71;73.69;102012.06;5094563;28;20079;-65
2023/02/09 04:51:56;;;;;;;0.43;0.43;;;;;;;-6.82;73.66;102004.41;5094843;28;20056;-65
2023/02/09 04:54:25;;;;;;;0.52;0.52;;;;;;;-6.91;73.82;101997.59;5094408;28;20040;-65
2023/02/09 04:59:33;;;;;;;0.90;0.90;;;;;;;-6.87;74.00;101998.09;5094998;28;20414;-65
2023/02/09 04:59:45;;;;;;;0.55;0.55;;;;;;;-6.86;74.11;102002.31;5094729;28;20067;-65
2023/02/09 05:02:13;;;;;;;0.50;0.50;;;;;;;-6.87;74.16;101994.72;5094398;28;20054;-65
2023/02/09 05:04:42;;;;;;;2.40;2.30;;;;;;;-6.93;74.17;101996.53;5094288;28;20052;-65
2023/02/09 05:07:11;;;;;;;5.60;3.38;;;;;;;-7.00;74.29;102002.47;5094280;28;20047;-65
2023/02/09 05:09:40;;;;;;;2.35;1.58;;;;;;;-6.96;74.28;101997.09;5094272;28;20074;-65
2023/02/09 05:12:09;;;;;;;0.88;0.88;;;;;;;-7.00;74.40;101986.69;5094494;28;20055;-65
2023/02/09 05:14:38;;;;;;;0.60;0.60;;;;;;;-7.02;74.31;101993.97;5094235;28;20482;-65
2023/02/09 05:17:08;;;;;;;2.47;2.28;;;;;;;-7.02;74.57;101993.97;5094084;28;20048;-66
2023/02/09 05:19:37;;;;;;;2.05;1.58;;;;;;;-7.01;74.38;101995.75;5094119;28;20113;-65
2023/02/09 05:22:05;;;;;;;1.50;1.40;;;;;;;-7.05;74.55;101998.63;5094342;28;20072;-66
2023/02/09 05:24:34;;;;;;;0.45;0.45;;;;;;;-7.08;74.45;101992.47;5093936;28;20072;-65
2023/02/09 05:27:03;;;;;;;0.40;0.40;;;;;;;-7.22;74.28;101998.44;5094269;28;20498;-65
2023/02/09 05:29:32;;;;;;;14.00;1.92;;;;;;;-7.28;74.62;101995.31;5094187;28;20113;-65
2023/02/09 05:32:00;;;;;;;3.92;1.63;;;;;;;-7.25;74.54;102000.63;5094183;28;20048;-65
2023/02/09 05:34:31;;;;;;;2.22;2.10;;;;;;;-7.21;74.55;101995.25;5093753;28;20044;-65
2023/02/09 05:36:59;;;;;;;1.45;1.35;;;;;;;-7.13;74.69;101994.47;5093751;28;20043;-65
2023/02/09 05:39:28;;;;;;;5.93;1.73;;;;;;;-7.08;74.70;101992.47;5094089;28;20132;-65
2023/02/09 05:44:35;;;;;;;0.60;0.60;;;;;;;-6.99;74.87;101989.34;5094078;28;20044;-65
2023/02/09 05:47:04;;;;;;;1.10;1.10;;;;;;;-6.88;74.95;101988.88;5093663;28;20048;-65
2023/02/09 05:49:35;;;;;;;2.25;1.75;;;;;;;-6.94;74.87;101982.38;5094033;28;20048;-65
2023/02/09 05:52:04;;;;;;;1.35;1.00;;;;;;;-6.86;75.02;101987.41;5093662;28;20067;-65
2023/02/09 05:54:33;;;;;;;2.30;2.20;;;;;;;-6.88;74.83;101987.97;5093578;28;20083;-65
2023/02/09 05:57:02;;;;;;;1.88;1.45;;;;;;;-7.00;74.88;101985.09;5093859;28;20413;-65
2023/02/09 05:59:31;;;;;;;1.13;1.13;;;;;;;-7.00;74.77;101987.56;5093761;28;20131;-65
2023/02/09 06:02:00;;;;;;;2.05;1.95;;;;;;;-6.95;74.62;101981.50;5094060;28;20126;-65
2023/02/09 06:04:29;;;;;;;3.50;3.30;;;;;;;-6.87;74.73;101989.75;5093299;28;20056;-65
2023/02/09 06:07:00;;;;;;;2.13;1.95;;;;;;;-6.96;74.52;101989.66;5093333;28;20047;-65
2023/02/09 06:09:29;;;;;;;4.97;4.50;;;;;;;-6.98;74.65;101987.75;5093598;28;20044;-65
2023/02/09 06:11:57;;;;;;;3.28;3.08;;;;;;;-6.90;74.54;101990.31;5093683;28;20484;-65
2023/02/09 06:14:26;;;;;;;0.73;0.73;;;;;;;-6.85;74.55;101993.25;5093715;28;20043;-64
2023/02/09 06:16:55;;;;;;;4.53;2.03;;;;;;;-6.86;74.55;101997.34;5093364;28;20055;-64
2023/02/09 06:19:24;;;;;;;0.70;0.70;;;;;;;-6.84;74.61;102005.81;5093714;28;20040;-64
2023/02/09 06:21:53;;;;;;;1.23;1.23;;;;;;;-6.80;74.49;101999.59;5093894;28;20537;-64
2023/02/09 06:24:23;;;;;;;0.98;0.98;;;;;;;-6.79;74.42;102008.81;5092477;28;20044;-64
2023/02/09 06:26:52;;;;;;;0.95;0.95;;;;;;;-6.77;74.41;102007.38;5093661;28;20052;-64
2023/02/09 06:29:21;;;;;;;1.88;1.77;;;;;;;-6.75;74.48;102015.84;5093375;28;20048;-64
2023/02/09 06:31:49;;;;;;;2.73;2.53;;;;;;;-6.59;74.45;102006.78;5093532;28;20409;-64
2023/02/09 06:34:18;;;;;;;1.98;1.85;;;;;;;-6.41;74.34;102010.31;5093251;28;20285;-64
2023/02/09 06:36:47;;;;;;;1.25;1.15;;;;;;;-6.17;74.33;102007.84;5093096;28;20036;-64
2023/02/09 06:39:16;;;;;;;15.95;4.20;;;;;;;-6.14;74.25;102013.09;5093347;28;20102;-64
2023/02/09 06:41:46;;;;;;;2.63;2.43;;;;;;;-6.01;74.31;102016.13;5093223;28;20046;-64
2023/02/09 06:44:15;;;;;;;0.60;0.60;;;;;;;-5.83;74.05;102017.94;5093376;28;20044;-64
2023/02/09 06:46:44;;;;;;;0.82;0.82;;;;;;;-5.71;73.60;102019.19;5093722;28;20064;-64
2023/02/09 06:49:12;;;;;;;1.05;1.05;;;;;;;-5.75;73.49;102017.13;5093205;28;20048;-64
2023/02/09 06:51:41;;;;;;;1.00;1.00;;;;;;;-5.79;73.41;102020.03;5093412;28;20555;-64
2023/02/09 06:54:10;;;;;;;1.73;1.63;;;;;;;-5.78;73.23;102021.78;5096225;28;20078;-64
2023/02/09 06:56:39;;;;;;;2.30;2.10;;;;;;;-5.71;73.21;102026.63;5096645;28;20050;-64
2023/02/09 06:59:09;;;;;;;3.10;1.25;;;;;;;-5.64;73.19;102026.53;5096814;28;20044;-64
2023/02/09 07:01:38;;;;;;;1.02;1.00;;;;;;;-5.50;73.20;102026.34;5096651;28;20097;-64
2023/02/09 07:04:06;;;;;;;4.85;3.45;;;;;;;-5.45;72.98;102020.19;5096515;28;20074;-65
2023/02/09 07:06:35;;;;;;;1.20;1.13;;;;;;;-5.35;73.14;102026.94;5096879;28;20048;-64
2023/02/09 07:09:04;;;;;;;0.68;0.68;;;;;;;-5.29;73.18;102031.66;5096806;28;20071;-64
2023/02/09 07:11:33;;;;;;;0.80;0.80;;;;;;;-5.11;73.51;102034.34;5096651;28;20101;-65
2023/02/09 07:14:02;;;;;;;1.13;0.90;;;;;;;-5.05;73.17;102029.09;5096422;28;20482;-65
2023/02/09 07:16:32;;;;;;;1.00;0.98;;;;;;;-4.88;73.28;102039.13;5096624;28;20444;-65
2023/02/09 07:19:01;;;;;;;0.82;0.82;;;;;;;-4.76;73.15;102027.84;5096245;28;20131;-65
2023/02/09 07:21:29;;;;;;;1.07;1.07;;;;;;;-4.55;73.19;102026.53;5096600;28;20047;-65
2023/02/09 07:23:58;;;;;;;4.07;3.70;;;;;;;-4.37;73.30;102018.38;5096437;28;20308;-65
2023/02/09 07:26:27;;;;;;;0.75;0.75;;;;;;;-4.29;72.61;102018.34;5096158;28;20044;-65
2023/02/09 07:28:56;;;;;;;0.55;0.55;;;;;;;-4.31;72.45;102014.84;5096453;28;20571;-65
2023/02/09 07:31:26;;;;;;;0.70;0.70;;;;;;;-4.27;72.04;102011.03;5096110;28;20093;-65
2023/02/09 07:33:57;;;;;;;0.40;0.40;;;;;;;-4.17;71.88;102019.50;5096013;28;20269;-64
2023/02/09 07:36:26;;;;;;;1.30;1.20;;;;;;;-4.23;71.69;102018.94;5096080;28;20038;-64
2023/02/09 07:38:56;;;;;;;1.80;1.65;;;;;;;-4.11;71.42;102025.09;5095975;28;20047;-65
2023/02/09 07:41:25;;;;;;;0.60;0.60;;;;;;;-4.10;71.52;102030.94;5096137;28;20440;-65
2023/02/09 07:43:55;;;;;;;0.30;0.30;;;;;;;-4.08;71.25;102024.50;5096236;28;20050;-65
2023/02/09 07:46:24;;;;;;;1.52;1.42;;;;;;;-3.96;71.13;102034.75;5096090;28;20063;-65
2023/02/09 07:48:53;;;;;;;0.73;0.73;;;;;;;-3.86;71.07;102037.38;5095854;28;20054;-65
2023/02/09 07:51:24;;;;;;;1.77;0.88;;;;;;;-3.79;70.65;102042.19;5095922;28;20398;-65
2023/02/09 07:53:54;;;;;;;2.58;2.33;;;;;;;-3.63;70.48;102042.88;5095700;28;20050;-65
2023/02/09 07:56:23;;;;;;;1.50;1.40;;;;;;;-3.49;70.73;102030.06;5095577;28;20079;-66
2023/02/09 07:58:53;;;;;;;3.33;1.33;;;;;;;-3.53;70.31;102036.38;5088960;28;20046;-65
2023/02/09 08:01:22;;;;;;;2.67;2.53;;;;;;;-3.60;69.96;102033.19;5079196;28;20131;-65
2023/02/09 08:03:51;;;;;;;2.90;2.70;;;;;;;-3.63;69.87;102033.78;5074164;28;20050;-66
2023/02/09 08:06:27;;;;;;;0.43;0.43;;;;;;;-3.67;70.06;102028.38;5075911;28;20124;-65
2023/02/09 08:09:10;;;;;;;3.13;2.83;;;;;;;-3.63;70.80;102030.41;5075467;28;20079;-65
2023/02/09 08:11:43;;;;;;;2.67;2.45;;;;;;;-3.55;70.03;102037.00;5076190;28;20113;-65
2023/02/09 08:14:18;;;;;;;2.67;2.45;;;;;;;-3.48;70.40;102029.34;5095323;28;20131;-66
2023/02/09 08:16:48;;;;;;;0.63;0.63;;;;;;;-3.21;70.48;102029.34;5095255;28;20036;-66
2023/02/09 08:19:19;;;;;;;0.40;0.40;;;;;;;-2.89;70.43;102033.16;5095799;28;20055;-66
2023/02/09 08:21:50;;;;;;;1.25;1.15;;;;;;;-2.83;69.83;102023.69;5095520;28;20089;-67
2023/02/09 08:24:20;;;;;;;2.65;2.03;;;;;;;-2.89;69.00;102018.16;5088618;28;20051;-66
2023/02/09 08:26:49;;;;;;;1.73;1.63;;;;;;;-2.78;69.42;102010.00;5079865;28;20106;-66
2023/02/09 08:29:18;;;;;;;1.53;1.43;;;;;;;-2.52;69.57;102007.31;5091105;28;20094;-66
2023/02/09 08:31:47;;;;;;;0.70;0.70;;;;;;;-2.35;68.87;102007.16;5088741;28;20036;-66
2023/02/09 08:34:15;;;;;;;0.50;0.50;;;;;;;-2.36;68.91;102010.44;5079798;28;20048;-67
2023/02/09 08:36:44;;;;;;;3.43;0.83;;;;;;;-2.52;68.23;102006.44;5074542;28;20094;-65
2023/02/09 08:39:14;;;;;;;3.53;1.53;;;;;;;-2.68;68.19;101995.81;5074443;28;20292;-66
2023/02/09 08:41:43;;;;;;;3.47;2.45;;;;;;;-2.62;68.47;102001.38;5074403;28;20047;-67
2023/02/09 08:44:14;;;;;;;1.65;1.55;;;;;;;-2.44;68.11;102000.47;5074440;28;20041;-66
2023/02/09 08:46:42;;;;;;;1.77;1.67;;;;;;;-2.33;68.23;102000.69;5074262;28;20045;-67
2023/02/09 08:49:11;;;;;;;2.40;1.38;;;;;;;-2.27;68.36;102000.34;5074363;28;20045;-67
2023/02/09 08:51:40;;;;;;;0.40;0.40;;;;;;;-1.98;68.25;102001.25;5074440;28;20048;-68
2023/02/09 08:54:10;;;;;;;1.88;1.75;;;;;;;-1.61;68.11;102003.59;5082421;28;20079;-69
2023/02/09 08:56:43;;;;;;;2.72;1.67;;;;;;;-1.63;67.85;101992.59;5085474;28;20094;-68
2023/02/09 08:59:12;;;;;;;2.42;2.22;;;;;;;-1.48;67.31;101996.41;5082878;28;20048;-67
2023/02/09 09:01:41;;;;;;;2.13;1.27;;;;;;;-1.42;66.76;101993.53;5083936;28;20040;-68
2023/02/09 09:04:10;;;;;;;8.15;3.63;;;;;;;-1.46;67.00;101992.38;5084566;28;20297;-68
2023/02/09 09:06:38;;;;;;;1.17;1.13;;;;;;;-1.24;66.85;101999.19;5088545;28;20036;-67
2023/02/09 09:09:07;;;;;;;1.77;1.67;;;;;;;-1.21;66.77;101989.44;5092680;28;20501;-68
2023/02/09 09:11:37;;;;;;;1.45;1.35;;;;;;;-1.23;66.65;101996.81;5092453;28;20140;-68
2023/02/09 09:14:07;;;;;;;1.60;1.50;;;;;;;-1.13;66.41;101993.47;5091460;28;20036;-69
2023/02/09 09:16:36;;;;;;;0.57;0.50;;;;;;;-1.11;66.10;101991.94;5084418;28;20470;-69
2023/02/09 09:19:05;;;;;;;2.55;2.35;;;;;;;-1.12;65.84;101986.06;5083627;28;20078;-68
2023/02/09 09:21:34;;;;;;;1.58;1.40;;;;;;;-1.16;65.44;101980.66;5093691;28;20093;-67
2023/02/09 09:24:04;;;;;;;0.60;0.60;;;;;;;-1.06;65.76;101985.69;5094313;28;20072;-68
2023/02/09 09:26:33;;;;;;;1.55;1.45;;;;;;;-0.85;65.53;101990.81;5094188;28;20508;-68
2023/02/09 09:29:02;;;;;;;0.77;0.77;;;;;;;-0.91;65.07;101991.97;5093899;28;20101;-67
2023/02/09 09:31:33;;;;;;;3.72;1.58;;;;;;;-0.95;64.61;101994.94;5094026;28;20409;-67
2023/02/09 09:34:02;;;;;;;2.92;2.67;;;;;;;-0.90;64.65;101993.69;5094146;28;20044;-68
2023/02/09 09:36:31;;;;;;;0.43;0.43;;;;;;;-0.88;64.37;101983.06;5093817;28;20056;-67
2023/02/09 09:39:00;;;;;;;0.50;0.50;;;;;;;-0.76;64.42;101988.19;5094059;28;20071;-70
2023/02/09 09:41:33;;;;;;;1.30;1.20;;;;;;;-0.77;64.11;101982.28;5093767;28;20074;-69
2023/02/09 09:44:03;;;;;;;2.33;2.13;;;;;;;-0.64;64.33;101984.16;5093867;28;20048;-69
2023/02/09 09:46:38;;;;;;;3.05;2.67;;;;;;;-0.43;64.00;101975.84;5093663;28;20054;-70
2023/02/09 09:49:18;;;;;;;0.55;0.55;;;;;;;-0.32;63.74;101980.09;5093618;28;20093;-70
2023/02/09 09:51:52;;;;;;;1.48;1.38;;;;;;;-0.31;63.09;101976.81;5093666;28;20085;-69
2023/02/09 09:54:25;;;;;;;0.25;0.25;;;;;;;-0.17;63.29;101968.72;5093529;28;20054;-70
2023/02/09 09:56:55;;;;;;;0.85;0.85;;;;;;;0.03;62.96;101976.94;5093752;28;20412;-68
2023/02/09 09:59:26;;;;;;;0.55;0.55;;;;;;;0.22;62.87;101967.56;5092584;28;20144;-68
2023/02/09 10:02:01;;;;;;;0.75;0.75;;;;;;;0.26;62.47;101967.06;5091926;28;20131;-70
2023/02/09 10:04:31;;;;;;;0.30;0.30;;;;;;;0.33;62.06;101961.75;5083124;28;20063;-69
2023/02/09 10:07:10;;;;;;;2.37;2.17;;;;;;;0.47;61.48;101956.13;5093427;28;20068;-68
2023/02/09 10:09:42;;;;;;;2.20;1.77;;;;;;;0.67;61.29;101954.34;5093418;28;20131;-69
2023/02/09 10:12:32;;;;;;;0.65;0.65;;;;;;;0.91;61.63;101946.91;5093446;28;20048;-69
2023/02/09 10:15:18;;;;;;;0.95;0.95;;;;;;;1.14;60.79;101946.94;5093191;28;20050;-69
2023/02/09 10:17:49;;;;;;;0.50;0.50;;;;;;;1.29;60.06;101941.41;5093539;28;20063;-68
2023/02/09 10:20:18;;;;;;;1.80;0.93;;;;;;;1.66;59.56;101941.47;5093623;28;20066;-68
2023/02/09 10:22:51;;;;;;;2.75;1.70;;;;;;;2.10;59.04;101930.38;5093265;28;20052;-69
2023/02/09 10:25:37;;;;;;;2.10;0.52;;;;;;;2.16;58.99;101940.84;5093259;28;20099;-68
2023/02/09 10:28:18;;;;;;;2.42;1.88;;;;;;;2.47;57.76;101924.53;5095322;28;20040;-69
2023/02/09 10:30:50;;;;;;;1.02;1.02;;;;;;;2.70;57.42;101926.09;5096325;28;20048;-68
2023/02/09 10:33:21;;;;;;;1.50;1.40;;;;;;;2.85;57.02;101928.75;5097121;28;20052;-68
2023/02/09 10:35:53;;;;;;;0.80;0.80;;;;;;;3.05;56.44;101926.75;5097168;28;20127;-69
2023/02/09 10:38:25;;;;;;;1.85;1.70;;;;;;;2.99;55.79;101920.44;5097075;28;20044;-68
2023/02/09 10:40:55;;;;;;;4.50;2.15;;;;;;;3.09;56.30;101923.66;5097106;28;20074;-69
2023/02/09 10:43:27;;;;;;;0.85;0.85;;;;;;;3.14;55.49;101907.16;5096992;28;20101;-68
2023/02/09 10:45:59;;;;;;;1.85;1.73;;;;;;;3.26;55.52;101902.03;5097391;28;20386;-69
2023/02/09 10:48:40;;;;;;;4.15;1.38;;;;;;;3.51;55.23;101909.50;5097193;28;20048;-69
2023/02/09 10:51:15;;;;;;;0.90;0.90;;;;;;;3.64;55.14;101905.34;5095741;28;20048;-70
2023/02/09 10:54:00;;;;;;;2.00;1.45;;;;;;;3.83;54.54;101905.69;5076641;28;20561;-68
2023/02/09 10:56:35;;;;;;;2.55;1.77;;;;;;;3.90;54.34;101900.25;5095237;28;20064;-69
2023/02/09 10:59:16;;;;;;;1.83;1.73;;;;;;;3.97;53.51;101888.84;5090171;28;20482;-69
2023/02/09 11:01:54;;;;;;;1.17;1.05;;;;;;;3.80;53.17;101897.94;5082682;28;20401;-69
2023/02/09 11:04:26;;;;;;;0.60;0.60;;;;;;;3.81;53.31;101891.22;5084999;28;20151;-70
2023/02/09 11:06:59;;;;;;;1.13;1.02;;;;;;;3.68;53.50;101889.59;5076878;28;20044;-69
2023/02/09 11:09:30;;;;;;;3.88;2.92;;;;;;;3.93;53.90;101885.28;5087098;28;20134;-69
2023/02/09 11:12:00;;;;;;;1.50;1.40;;;;;;;4.19;53.68;101876.75;5096359;28;20036;-69
2023/02/09 11:14:29;;;;;;;1.10;1.02;;;;;;;4.33;52.96;101875.03;5094260;28;20048;-69
2023/02/09 11:17:14;;;;;;;0.98;0.93;;;;;;;4.31;52.04;101874.06;5095778;28;20519;-69
2023/02/09 11:20:06;;;;;;;2.15;1.38;;;;;;;4.24;52.24;101869.44;5076334;28;20131;-71
2023/02/09 11:23:04;;;;;;;0.93;0.93;;;;;;;4.23;51.87;101867.69;5095453;28;20044;-69
2023/02/09 11:25:37;;;;;;;4.28;2.15;;;;;;;4.51;51.79;101861.81;5062781;28;20132;-69
2023/02/09 11:28:23;;;;;;;0.60;0.60;;;;;;;4.69;51.64;101867.06;5095931;28;20048;-70
2023/02/09 11:31:17;;;;;;;0.98;0.98;;;;;;;4.74;50.67;101875.81;5096809;28;20052;-69
2023/02/09 11:33:56;;;;;;;2.97;2.40;;;;;;;4.79;50.49;101864.28;5094870;28;20548;-71
2023/02/09 11:36:45;;;;;;;3.65;1.58;;;;;;;5.00;50.76;101857.91;5089808;28;20133;-70
2023/02/09 11:39:17;;;;;;;;;;;;;;;5.14;50.27;101859.56;5090313;28;20389;-69
2023/02/09 11:44:44;;;;;;;4.55;2.58;;;;;;;4.91;49.60;101847.28;5095845;28;20176;-70
2023/02/09 11:47:18;;;;;;;0.57;0.57;;;;;;;4.95;49.24;101851.72;5087473;28;20055;-69
2023/02/09 11:49:53;;;;;;;2.67;1.65;;;;;;;5.06;49.40;101845.59;5078598;28;20124;-69
2023/02/09 11:52:30;;;;;;;8.23;2.05;;;;;;;5.22;49.11;101837.22;5075478;28;20054;-69
2023/02/09 11:55:02;;;;;;;2.50;1.70;;;;;;;5.00;49.14;101835.13;5083430;28;20039;-70
2023/02/09 11:57:36;;;;;;;3.78;2.33;;;;;;;4.86;49.31;101838.56;5085942;28;20064;-69
2023/02/09 12:00:07;;;;;;;0.93;0.90;;;;;;;5.01;49.17;101831.84;5090181;28;20048;-69